Terminal Aerodrome Forecast
Issued by NWS Duluth, MN

Home | Current Version | Previous Version | Text Only | Print | Product List | Glossary On
Versions: 1 2 3 4 5 6 7 8 9 10 11 12 13 14 15 16 17 18 19 20 21 22 23 24 25 26
000
FTUS43 KDLH 281100 RRA
TAFINL
TAF
KINL 281142Z 2812/2912 19005KT P6SM SKC
     FM281600 19012G20KT P6SM SCT150
     FM290000 19012KT P6SM BKN100
     FM290300 20012KT P6SM SCT030 BKN060 WS020/20040KT
     FM290800 21012KT P6SM -RASN BKN020 OVC040 WS020/22035KT=

USA.gov is the U.S. government's official web portal to all federal, state and local government web resources and services.